Time,TemperatureF,DewpointF,PressureIn,WindDirection,WindDirectionDegrees,WindSpeedMPH,WindSpeedGustMPH,Humidity,HourlyPrecipIn,Conditions,Clouds,dailyrainin,SolarRadiationWatts/m^2,SoftwareType,DateUTC
2013-06-12 00:03:00,58.0,55.0,-100.00,NE,37,0.0,3.0,91,0.00,,,0.00,0.000000,,2013-06-12 05:03:00,
2013-06-12 00:12:00,54.0,53.0,-100.00,WSW,257,0.0,2.0,96,0.00,,,0.00,0.000000,,2013-06-12 05:12:00,
2013-06-12 00:32:00,54.0,53.0,-100.00,WSW,257,0.0,2.0,96,0.00,,,0.00,0.000000,,2013-06-12 05:32:00,
2013-06-12 00:42:00,54.0,53.0,-100.00,WSW,257,0.0,2.0,96,0.00,,,0.00,0.000000,,2013-06-12 05:42:00,
2013-06-12 00:52:00,54.0,53.0,-100.00,WSW,257,0.0,2.0,96,0.00,,,0.00,0.000000,,2013-06-12 05:52:00,
2013-06-12 01:02:00,54.0,53.0,-100.00,WSW,257,0.0,2.0,96,0.00,,,0.00,0.000000,,2013-06-12 06:02:00,
2013-06-12 01:12:00,52.0,51.0,-100.00,West,275,0.0,0.0,97,0.00,,,0.00,0.000000,,2013-06-12 06:12:00,
2013-06-12 01:32:00,52.0,51.0,-100.00,West,275,0.0,0.0,97,0.00,,,0.00,0.000000,,2013-06-12 06:32:00,
2013-06-12 01:42:00,52.0,51.0,-100.00,West,275,0.0,0.0,97,0.00,,,0.00,0.000000,,2013-06-12 06:42:00,
2013-06-12 01:52:00,52.0,51.0,-100.00,West,275,0.0,0.0,97,0.00,,,0.00,0.000000,,2013-06-12 06:52:00,
2013-06-12 02:02:00,52.0,51.0,-100.00,West,275,0.0,0.0,97,0.00,,,0.00,0.000000,,2013-06-12 07:02:00,
2013-06-12 02:12:00,49.0,48.0,-100.00,NW,320,1.0,2.0,97,0.00,,,0.00,0.000000,,2013-06-12 07:12:00,
2013-06-12 02:33:00,49.0,48.0,-100.00,NW,320,1.0,2.0,97,0.00,,,0.00,0.000000,,2013-06-12 07:33:00,
2013-06-12 02:43:00,49.0,48.0,-100.00,NW,320,1.0,2.0,97,0.00,,,0.00,0.000000,,2013-06-12 07:43:00,
2013-06-12 02:53:00,49.0,48.0,-100.00,NW,320,1.0,2.0,97,0.00,,,0.00,0.000000,,2013-06-12 07:53:00,
2013-06-12 03:02:00,49.0,48.0,-100.00,NW,320,1.0,2.0,97,0.00,,,0.00,0.000000,,2013-06-12 08:02:00,
2013-06-12 03:33:00,48.0,47.0,-100.00,WNW,300,2.0,3.0,98,0.00,,,0.00,0.000000,,2013-06-12 08:33:00,
2013-06-12 03:43:00,48.0,47.0,-100.00,WNW,300,2.0,3.0,98,0.00,,,0.00,0.000000,,2013-06-12 08:43:00,
2013-06-12 03:53:00,48.0,47.0,-100.00,WNW,300,2.0,3.0,98,0.00,,,0.00,0.000000,,2013-06-12 08:53:00,
2013-06-12 04:01:00,48.0,47.0,-100.00,WNW,300,2.0,3.0,98,0.00,,,0.00,0.000000,,2013-06-12 09:01:00,
2013-06-12 04:11:00,48.0,47.0,-100.00,WNW,300,2.0,3.0,98,0.00,,,0.00,0.000000,,2013-06-12 09:11:00,
2013-06-12 04:33:00,48.0,47.0,-100.00,West,270,1.0,3.0,98,0.00,,,0.00,0.000000,,2013-06-12 09:33:00,
2013-06-12 04:43:00,48.0,47.0,-100.00,West,270,1.0,3.0,98,0.00,,,0.00,0.000000,,2013-06-12 09:43:00,
2013-06-12 04:53:00,48.0,47.0,-100.00,West,270,1.0,3.0,98,0.00,,,0.00,0.000000,,2013-06-12 09:53:00,
2013-06-12 05:02:00,48.0,47.0,-100.00,West,270,1.0,3.0,98,0.00,,,0.00,0.000000,,2013-06-12 10:02:00,
2013-06-12 05:11:00,48.0,47.0,-100.00,West,270,1.0,3.0,98,0.00,,,0.00,0.000000,,2013-06-12 10:11:00,
2013-06-12 05:12:00,46.0,45.0,-100.00,North,9,0.0,2.0,98,0.00,,,0.00,2.000000,,2013-06-12 10:12:00,
2013-06-12 05:33:00,46.0,45.0,-100.00,North,9,0.0,2.0,98,0.00,,,0.00,2.000000,,2013-06-12 10:33:00,
2013-06-12 05:43:00,46.0,45.0,-100.00,North,9,0.0,2.0,98,0.00,,,0.00,2.000000,,2013-06-12 10:43:00,
2013-06-12 05:53:00,46.0,45.0,-100.00,North,9,0.0,2.0,98,0.00,,,0.00,2.000000,,2013-06-12 10:53:00,
2013-06-12 06:02:00,46.0,45.0,-100.00,North,9,0.0,2.0,98,0.00,,,0.00,2.000000,,2013-06-12 11:02:00,
2013-06-12 06:33:00,51.0,50.0,-100.00,WNW,289,1.0,2.0,95,0.00,,,0.00,70.000000,,2013-06-12 11:33:00,
2013-06-12 06:43:00,51.0,50.0,-100.00,WNW,289,1.0,2.0,95,0.00,,,0.00,70.000000,,2013-06-12 11:43:00,
2013-06-12 06:53:00,51.0,50.0,-100.00,WNW,289,1.0,2.0,95,0.00,,,0.00,70.000000,,2013-06-12 11:53:00,
2013-06-12 07:02:00,51.0,50.0,-100.00,WNW,289,1.0,2.0,95,0.00,,,0.00,70.000000,,2013-06-12 12:02:00,
2013-06-12 07:11:00,51.0,50.0,-100.00,WNW,289,1.0,2.0,95,0.00,,,0.00,70.000000,,2013-06-12 12:11:00,
2013-06-12 07:12:00,61.0,56.0,-100.00,NW,322,2.0,4.0,84,0.00,,,0.00,217.000000,,2013-06-12 12:12:00,
2013-06-12 07:33:00,61.0,56.0,-100.00,NW,322,2.0,4.0,84,0.00,,,0.00,217.000000,,2013-06-12 12:33:00,
2013-06-12 07:43:00,61.0,56.0,-100.00,NW,322,2.0,4.0,84,0.00,,,0.00,217.000000,,2013-06-12 12:43:00,
2013-06-12 07:53:00,61.0,56.0,-100.00,NW,322,2.0,4.0,84,0.00,,,0.00,217.000000,,2013-06-12 12:53:00,
2013-06-12 08:01:00,61.0,56.0,-100.00,NW,322,2.0,4.0,84,0.00,,,0.00,217.000000,,2013-06-12 13:01:00,
2013-06-12 08:33:00,68.0,59.0,-100.00,WSW,255,2.0,6.0,72,0.00,,,0.00,417.000000,,2013-06-12 13:33:00,
2013-06-12 08:43:00,68.0,59.0,-100.00,WSW,255,2.0,6.0,72,0.00,,,0.00,417.000000,,2013-06-12 13:43:00,
2013-06-12 08:53:00,68.0,59.0,-100.00,WSW,255,2.0,6.0,72,0.00,,,0.00,417.000000,,2013-06-12 13:53:00,
2013-06-12 09:02:00,68.0,59.0,-100.00,WSW,255,2.0,6.0,72,0.00,,,0.00,417.000000,,2013-06-12 14:02:00,
2013-06-12 09:11:00,68.0,59.0,-100.00,WSW,255,2.0,6.0,72,0.00,,,0.00,417.000000,,2013-06-12 14:11:00,
2013-06-12 09:12:00,72.0,58.0,-100.00,SSW,198,4.0,6.0,62,0.00,,,0.00,617.000000,,2013-06-12 14:12:00,
2013-06-12 09:33:00,72.0,58.0,-100.00,SSW,198,4.0,6.0,62,0.00,,,0.00,617.000000,,2013-06-12 14:33:00,
2013-06-12 09:43:00,72.0,58.0,-100.00,SSW,198,4.0,6.0,62,0.00,,,0.00,617.000000,,2013-06-12 14:43:00,
2013-06-12 09:53:00,72.0,58.0,-100.00,SSW,198,4.0,6.0,62,0.00,,,0.00,617.000000,,2013-06-12 14:53:00,
2013-06-12 10:01:00,72.0,58.0,-100.00,SSW,198,4.0,6.0,62,0.00,,,0.00,617.000000,,2013-06-12 15:01:00,
2013-06-12 10:12:00,76.0,55.0,-100.00,South,175,3.0,10.0,48,0.00,,,0.00,773.000000,,2013-06-12 15:12:00,
2013-06-12 10:33:00,76.0,55.0,-100.00,South,175,3.0,10.0,48,0.00,,,0.00,773.000000,,2013-06-12 15:33:00,
2013-06-12 10:43:00,76.0,55.0,-100.00,South,175,3.0,10.0,48,0.00,,,0.00,773.000000,,2013-06-12 15:43:00,
2013-06-12 10:52:00,76.0,55.0,-100.00,South,175,3.0,10.0,48,0.00,,,0.00,773.000000,,2013-06-12 15:52:00,
2013-06-12 11:01:00,76.0,55.0,-100.00,South,175,3.0,10.0,48,0.00,,,0.00,773.000000,,2013-06-12 16:01:00,
2013-06-12 11:12:00,78.0,50.0,-100.00,SW,230,5.0,10.0,38,0.00,,,0.00,914.000000,,2013-06-12 16:12:00,
2013-06-12 11:33:00,78.0,50.0,-100.00,SW,230,5.0,10.0,38,0.00,,,0.00,914.000000,,2013-06-12 16:33:00,
2013-06-12 11:43:00,78.0,50.0,-100.00,SW,230,5.0,10.0,38,0.00,,,0.00,914.000000,,2013-06-12 16:43:00,
2013-06-12 11:53:00,78.0,50.0,-100.00,SW,230,5.0,10.0,38,0.00,,,0.00,914.000000,,2013-06-12 16:53:00,
2013-06-12 12:01:00,78.0,50.0,-100.00,SW,230,5.0,10.0,38,0.00,,,0.00,914.000000,,2013-06-12 17:01:00,
2013-06-12 12:12:00,81.0,51.0,-100.00,West,279,6.0,11.0,35,0.00,,,-99.99,1027.000000,,2013-06-12 17:12:00,
2013-06-12 12:33:00,81.0,51.0,-100.00,West,279,6.0,11.0,35,0.00,,,-99.99,1027.000000,,2013-06-12 17:33:00,
2013-06-12 12:42:00,81.0,51.0,-100.00,West,279,6.0,11.0,35,0.00,,,-99.99,1027.000000,,2013-06-12 17:42:00,
2013-06-12 12:52:00,81.0,51.0,-100.00,West,279,6.0,11.0,35,0.00,,,-99.99,1027.000000,,2013-06-12 17:52:00,
2013-06-12 13:02:00,81.0,51.0,-100.00,West,279,6.0,11.0,35,0.00,,,-99.99,1027.000000,,2013-06-12 18:02:00,
2013-06-12 13:33:00,83.0,52.0,-100.00,NNE,14,5.0,12.0,34,0.00,,,0.00,1072.000000,,2013-06-12 18:33:00,
2013-06-12 13:43:00,83.0,52.0,-100.00,NNE,14,5.0,12.0,34,0.00,,,0.00,1072.000000,,2013-06-12 18:43:00,
2013-06-12 14:11:00,83.0,52.0,-100.00,NNE,14,5.0,12.0,34,0.00,,,0.00,1072.000000,,2013-06-12 19:11:00,
2013-06-12 14:32:00,85.0,51.0,-100.00,NNW,332,5.0,13.0,31,0.00,,,0.00,1052.000000,,2013-06-12 19:32:00,
2013-06-12 15:33:00,83.0,50.0,-100.00,NNW,347,5.0,10.0,32,-99.99,,,0.00,906.000000,,2013-06-12 20:33:00,
2013-06-12 15:43:00,83.0,50.0,-100.00,NNW,347,5.0,10.0,32,-99.99,,,0.00,906.000000,,2013-06-12 20:43:00,
2013-06-12 15:54:00,83.0,50.0,-100.00,NNW,347,5.0,10.0,32,-99.99,,,0.00,906.000000,,2013-06-12 20:54:00,
2013-06-12 16:01:00,83.0,50.0,-100.00,NNW,347,5.0,10.0,32,-99.99,,,0.00,906.000000,,2013-06-12 21:01:00,
2013-06-12 16:11:00,83.0,50.0,-100.00,NNW,347,5.0,10.0,32,-99.99,,,0.00,906.000000,,2013-06-12 21:11:00,
2013-06-12 16:33:00,77.0,51.0,-100.00,SE,140,5.0,13.0,40,-99.99,,,0.00,308.000000,,2013-06-12 21:33:00,
2013-06-12 16:43:00,77.0,51.0,-100.00,SE,140,5.0,13.0,40,-99.99,,,0.00,308.000000,,2013-06-12 21:43:00,
2013-06-12 16:53:00,77.0,51.0,-100.00,SE,140,5.0,13.0,40,-99.99,,,0.00,308.000000,,2013-06-12 21:53:00,
2013-06-12 17:01:00,77.0,51.0,-100.00,SE,140,5.0,13.0,40,-99.99,,,0.00,308.000000,,2013-06-12 22:01:00,
2013-06-12 17:11:00,77.0,51.0,-100.00,SE,140,5.0,13.0,40,-99.99,,,0.00,308.000000,,2013-06-12 22:11:00,
2013-06-12 17:12:00,75.0,48.0,-100.00,ESE,123,6.0,14.0,39,0.00,,,-99.99,407.000000,,2013-06-12 22:12:00,
2013-06-12 17:33:00,75.0,48.0,-100.00,ESE,123,6.0,14.0,39,0.00,,,-99.99,407.000000,,2013-06-12 22:33:00,
2013-06-12 17:43:00,75.0,48.0,-100.00,ESE,123,6.0,14.0,39,0.00,,,-99.99,407.000000,,2013-06-12 22:43:00,
2013-06-12 17:52:00,75.0,48.0,-100.00,ESE,123,6.0,14.0,39,0.00,,,-99.99,407.000000,,2013-06-12 22:52:00,
2013-06-12 18:02:00,75.0,48.0,-100.00,ESE,123,6.0,14.0,39,0.00,,,-99.99,407.000000,,2013-06-12 23:02:00,
2013-06-12 18:12:00,72.0,49.0,-100.00,SE,133,2.0,8.0,45,0.00,,,0.00,150.000000,,2013-06-12 23:12:00,
2013-06-12 18:32:00,72.0,49.0,-100.00,SE,133,2.0,8.0,45,0.00,,,0.00,150.000000,,2013-06-12 23:32:00,
2013-06-12 18:42:00,72.0,49.0,-100.00,SE,133,2.0,8.0,45,0.00,,,0.00,150.000000,,2013-06-12 23:42:00,
2013-06-12 18:53:00,72.0,49.0,-100.00,SE,133,2.0,8.0,45,0.00,,,0.00,150.000000,,2013-06-12 23:53:00,
2013-06-12 19:01:00,72.0,49.0,-100.00,SE,133,2.0,8.0,45,0.00,,,0.00,150.000000,,2013-06-13 00:01:00,
2013-06-12 19:12:00,71.0,50.0,-100.00,SSE,156,3.0,6.0,48,0.00,,,-99.99,115.000000,,2013-06-13 00:12:00,
2013-06-12 19:33:00,71.0,50.0,-100.00,SSE,156,3.0,6.0,48,0.00,,,-99.99,115.000000,,2013-06-13 00:33:00,
2013-06-12 19:43:00,71.0,50.0,-100.00,SSE,156,3.0,6.0,48,0.00,,,-99.99,115.000000,,2013-06-13 00:43:00,
2013-06-12 19:52:00,71.0,50.0,-100.00,SSE,156,3.0,6.0,48,0.00,,,-99.99,115.000000,,2013-06-13 00:52:00,
2013-06-12 20:01:00,71.0,50.0,-100.00,SSE,156,3.0,6.0,48,0.00,,,-99.99,115.000000,,2013-06-13 01:01:00,
2013-06-12 20:12:00,67.0,54.0,-100.00,NE,41,2.0,5.0,62,0.00,,,0.00,40.000000,,2013-06-13 01:12:00,
2013-06-12 20:33:00,67.0,54.0,-100.00,NE,41,2.0,5.0,62,0.00,,,0.00,40.000000,,2013-06-13 01:33:00,
2013-06-12 20:43:00,67.0,54.0,-100.00,NE,41,2.0,5.0,62,0.00,,,0.00,40.000000,,2013-06-13 01:43:00,
2013-06-12 20:53:00,67.0,54.0,-100.00,NE,41,2.0,5.0,62,0.00,,,0.00,40.000000,,2013-06-13 01:53:00,
2013-06-12 21:02:00,67.0,54.0,-100.00,NE,41,2.0,5.0,62,0.00,,,0.00,40.000000,,2013-06-13 02:02:00,
2013-06-12 21:12:00,61.0,54.0,-100.00,West,279,0.0,5.0,77,0.00,,,0.00,7.000000,,2013-06-13 02:12:00,
2013-06-12 21:33:00,61.0,54.0,-100.00,West,279,0.0,5.0,77,0.00,,,0.00,7.000000,,2013-06-13 02:33:00,
2013-06-12 21:43:00,61.0,54.0,-100.00,West,279,0.0,5.0,77,0.00,,,0.00,7.000000,,2013-06-13 02:43:00,
2013-06-12 21:52:00,61.0,54.0,-100.00,West,279,0.0,5.0,77,0.00,,,0.00,7.000000,,2013-06-13 02:52:00,
2013-06-12 22:02:00,61.0,54.0,-100.00,West,279,0.0,5.0,77,0.00,,,0.00,7.000000,,2013-06-13 03:02:00,
2013-06-12 22:33:00,58.0,53.0,-100.00,NNE,18,1.0,4.0,84,0.00,,,0.00,0.000000,,2013-06-13 03:33:00,
2013-06-12 22:43:00,58.0,53.0,-100.00,NNE,18,1.0,4.0,84,0.00,,,0.00,0.000000,,2013-06-13 03:43:00,
2013-06-12 22:52:00,58.0,53.0,-100.00,NNE,18,1.0,4.0,84,0.00,,,0.00,0.000000,,2013-06-13 03:52:00,
2013-06-12 23:01:00,58.0,53.0,-100.00,NNE,18,1.0,4.0,84,0.00,,,0.00,0.000000,,2013-06-13 04:01:00,
2013-06-12 23:11:00,58.0,53.0,-100.00,NNE,18,1.0,4.0,84,0.00,,,0.00,0.000000,,2013-06-13 04:11:00,
2013-06-12 23:12:00,58.0,50.0,-100.00,North,8,3.0,7.0,76,0.00,,,0.00,0.000000,,2013-06-13 04:12:00,
2013-06-12 23:33:00,58.0,50.0,-100.00,North,8,3.0,7.0,76,0.00,,,0.00,0.000000,,2013-06-13 04:33:00,
2013-06-12 23:43:00,58.0,50.0,-100.00,North,8,3.0,7.0,76,0.00,,,0.00,0.000000,,2013-06-13 04:43:00,
2013-06-12 23:54:00,58.0,50.0,-100.00,North,8,3.0,7.0,76,0.00,,,0.00,0.000000,,2013-06-13 04:54:00,